Time;durP1;ratioP1;P1;durP2;ratioP2;P2;SDS_P1;SDS_P2;PMS_P1;PMS_P2;Temp;Humidity;BMP_temperature;BMP_pressure;BME280_temperature;BME280_humidity;BME280_pressure;Samples;Min_cycle;Max_cycle;Signal;HPM_P1;HPM_P2
2024/02/11 00:02:03;;;;;;;5.13;2.67;;;;;;;;;;773510;180;903872;-65
2024/02/11 00:04:31;;;;;;;6.70;2.60;;;;;;;;;;769577;180;919477;-65
2024/02/11 00:06:55;;;;;;;6.53;3.22;;;;;;;;;;769589;180;920372;-67
2024/02/11 00:09:21;;;;;;;7.47;3.10;;;;;;;;;;771516;180;918393;-65
2024/02/11 00:11:47;;;;;;;10.53;3.03;;;;;;;;;;772810;180;918466;-65
2024/02/11 00:14:14;;;;;;;9.63;5.60;;;;;;;;;;763515;181;918496;-67
2024/02/11 00:16:39;;;;;;;9.83;3.10;;;;;;;;;;768681;180;937506;-65
2024/02/11 00:19:07;;;;;;;6.00;2.57;;;;;;;;;;774370;179;819879;-64
2024/02/11 00:21:31;;;;;;;9.97;4.37;;;;;;;;;;769387;180;908782;-68
2024/02/11 00:23:58;;;;;;;18.53;2.60;;;;;;;;;;767597;180;919452;-67
2024/02/11 00:26:22;;;;;;;10.13;3.30;;;;;;;;;;776248;180;813345;-67
2024/02/11 00:28:48;;;;;;;6.27;2.33;;;;;;;;;;772078;179;919561;-66
2024/02/11 00:31:14;;;;;;;10.30;2.67;;;;;;;;;;767005;180;920436;-66
2024/02/11 00:33:40;;;;;;;8.97;2.00;;;;;;;;;;777542;179;815372;-68
2024/02/11 00:36:07;;;;;;;5.57;2.10;;;;;;;;;;771125;179;817853;-67
2024/02/11 00:38:32;;;;;;;5.83;2.03;;;;;;;;;;770389;180;917911;-65
2024/02/11 00:40:58;;;;;;;2.90;1.40;;;;;;;;;;764770;179;919294;-65
2024/02/11 00:43:23;;;;;;;3.50;1.63;;;;;;;;;;773197;180;918276;-65
2024/02/11 00:45:49;;;;;;;5.40;2.13;;;;;;;;;;770485;180;902674;-67
2024/02/11 00:48:15;;;;;;;6.13;1.83;;;;;;;;;;769045;180;919449;-67
2024/02/11 00:50:41;;;;;;;3.57;1.50;;;;;;;;;;775105;179;920117;-67
2024/02/11 00:53:07;;;;;;;3.40;1.50;;;;;;;;;;774983;179;823406;-65
2024/02/11 00:55:35;;;;;;;4.07;1.95;;;;;;;;;;767943;179;917000;-65
2024/02/11 00:57:59;;;;;;;4.10;1.50;;;;;;;;;;775610;180;816319;-66
2024/02/11 01:00:25;;;;;;;4.07;1.67;;;;;;;;;;771307;179;922497;-67
2024/02/11 01:02:51;;;;;;;3.25;1.40;;;;;;;;;;768258;180;1022985;-67
2024/02/11 01:05:19;;;;;;;7.75;1.70;;;;;;;;;;777152;180;1021040;-66
2024/02/11 01:07:42;;;;;;;3.70;1.43;;;;;;;;;;779650;180;814726;-65
2024/02/11 01:10:11;;;;;;;2.50;1.10;;;;;;;;;;771023;180;919465;-67
2024/02/11 01:12:39;;;;;;;2.17;1.07;;;;;;;;;;766571;181;818146;-67
2024/02/11 01:15:07;;;;;;;5.13;1.50;;;;;;;;;;775314;180;916407;-65
2024/02/11 01:17:33;;;;;;;3.80;1.00;;;;;;;;;;770413;180;916274;-67
2024/02/11 01:19:59;;;;;;;3.07;1.20;;;;;;;;;;767940;180;921560;-68
2024/02/11 01:22:25;;;;;;;3.50;1.30;;;;;;;;;;774025;180;916782;-65
2024/02/11 01:24:51;;;;;;;4.10;1.43;;;;;;;;;;773600;178;918657;-65
2024/02/11 01:27:17;;;;;;;3.10;1.27;;;;;;;;;;764085;180;919182;-65
2024/02/11 01:29:43;;;;;;;3.80;1.50;;;;;;;;;;768856;180;918530;-65
2024/02/11 01:32:09;;;;;;;3.10;1.27;;;;;;;;;;774529;180;920810;-64
2024/02/11 01:34:34;;;;;;;8.10;1.60;;;;;;;;;;769738;180;813503;-68
2024/02/11 01:37:00;;;;;;;4.60;1.77;;;;;;;;;;767923;180;920379;-64
2024/02/11 01:39:26;;;;;;;4.63;1.40;;;;;;;;;;775232;180;815597;-65
2024/02/11 01:41:52;;;;;;;3.30;1.60;;;;;;;;;;769298;180;921564;-67
2024/02/11 01:44:18;;;;;;;5.53;1.50;;;;;;;;;;767838;180;935533;-68
2024/02/11 01:46:44;;;;;;;2.97;1.20;;;;;;;;;;772490;180;919771;-64
2024/02/11 01:49:11;;;;;;;4.10;1.33;;;;;;;;;;766830;180;920059;-65
2024/02/11 01:51:35;;;;;;;4.30;1.70;;;;;;;;;;765992;180;919042;-69
2024/02/11 01:54:01;;;;;;;3.97;1.37;;;;;;;;;;767992;180;919021;-65
2024/02/11 01:56:27;;;;;;;5.20;1.50;;;;;;;;;;773857;180;920126;-68
2024/02/11 01:58:53;;;;;;;3.00;1.47;;;;;;;;;;767805;180;922256;-64
2024/02/11 02:01:19;;;;;;;4.87;1.53;;;;;;;;;;769158;180;919236;-68
2024/02/11 02:03:44;;;;;;;3.07;1.53;;;;;;;;;;778507;180;909188;-67
2024/02/11 02:06:11;;;;;;;3.50;1.50;;;;;;;;;;770840;179;917462;-67
2024/02/11 02:08:36;;;;;;;4.40;1.50;;;;;;;;;;769688;180;818070;-68
2024/02/11 02:11:03;;;;;;;2.80;1.20;;;;;;;;;;774161;180;918825;-68
2024/02/11 02:13:28;;;;;;;2.20;1.10;;;;;;;;;;767470;180;919098;-68
2024/02/11 02:15:54;;;;;;;4.30;1.70;;;;;;;;;;767991;180;917597;-65
2024/02/11 02:18:20;;;;;;;4.12;1.52;;;;;;;;;;772882;180;817720;-68
2024/02/11 02:20:46;;;;;;;5.03;1.33;;;;;;;;;;766890;180;914905;-65
2024/02/11 02:23:12;;;;;;;5.87;1.27;;;;;;;;;;761730;181;919168;-65
2024/02/11 02:25:38;;;;;;;2.50;1.10;;;;;;;;;;764458;181;919790;-67
2024/02/11 02:28:05;;;;;;;2.57;0.90;;;;;;;;;;772369;179;920926;-65
2024/02/11 02:30:29;;;;;;;2.70;1.40;;;;;;;;;;769576;180;919322;-68
2024/02/11 02:32:55;;;;;;;2.87;1.20;;;;;;;;;;760663;182;919350;-67
2024/02/11 02:35:21;;;;;;;2.70;1.30;;;;;;;;;;772917;180;833262;-65
2024/02/11 02:37:47;;;;;;;3.50;1.10;;;;;;;;;;769121;180;918943;-66
2024/02/11 02:40:13;;;;;;;2.87;1.13;;;;;;;;;;770044;180;879331;-65
2024/02/11 02:42:39;;;;;;;2.90;1.30;;;;;;;;;;771197;180;913567;-65
2024/02/11 02:45:05;;;;;;;2.40;1.17;;;;;;;;;;766466;179;906577;-68
2024/02/11 02:47:31;;;;;;;3.20;1.30;;;;;;;;;;767726;180;1022024;-62
2024/02/11 02:49:56;;;;;;;3.10;1.30;;;;;;;;;;768106;180;916797;-64
2024/02/11 02:52:22;;;;;;;3.40;1.43;;;;;;;;;;773822;180;917086;-68
2024/02/11 02:54:48;;;;;;;2.63;1.13;;;;;;;;;;772322;180;918968;-64
2024/02/11 02:57:14;;;;;;;2.10;1.00;;;;;;;;;;769471;180;919520;-64
2024/02/11 02:59:40;;;;;;;5.27;1.30;;;;;;;;;;772843;180;918723;-64
2024/02/11 03:02:07;;;;;;;2.40;1.07;;;;;;;;;;770349;180;920160;-68
2024/02/11 03:04:32;;;;;;;2.45;1.17;;;;;;;;;;769935;179;925643;-68
2024/02/11 03:06:57;;;;;;;2.20;1.20;;;;;;;;;;771658;180;918941;-64
2024/02/11 03:09:24;;;;;;;3.20;1.40;;;;;;;;;;766204;180;920174;-66
2024/02/11 03:11:49;;;;;;;2.28;1.10;;;;;;;;;;768435;179;918658;-69
2024/02/11 03:14:15;;;;;;;2.20;1.10;;;;;;;;;;770397;179;919375;-68
2024/02/11 03:16:43;;;;;;;3.87;1.20;;;;;;;;;;769183;182;814913;-68
2024/02/11 03:19:07;;;;;;;6.73;1.47;;;;;;;;;;769020;180;917696;-64
2024/02/11 03:21:33;;;;;;;2.10;1.03;;;;;;;;;;769222;180;816339;-65
2024/02/11 03:23:58;;;;;;;4.40;1.20;;;;;;;;;;774853;180;816733;-68
2024/02/11 03:26:24;;;;;;;2.43;1.50;;;;;;;;;;768945;180;919217;-65
2024/02/11 03:28:50;;;;;;;2.40;1.30;;;;;;;;;;770218;180;918462;-68
2024/02/11 03:31:16;;;;;;;2.15;1.10;;;;;;;;;;776824;180;920201;-69
2024/02/11 03:33:42;;;;;;;3.00;1.67;;;;;;;;;;767119;180;814332;-65
2024/02/11 03:36:10;;;;;;;2.87;1.65;;;;;;;;;;766378;179;926622;-70
2024/02/11 03:38:35;;;;;;;3.90;1.83;;;;;;;;;;774133;180;819203;-68
2024/02/11 03:41:00;;;;;;;4.80;1.90;;;;;;;;;;770738;180;896010;-68
2024/02/11 03:43:26;;;;;;;3.30;1.40;;;;;;;;;;768754;181;919413;-66
2024/02/11 03:45:52;;;;;;;3.70;1.40;;;;;;;;;;768798;180;919397;-66
2024/02/11 03:48:18;;;;;;;2.70;1.53;;;;;;;;;;775748;180;895004;-65
2024/02/11 03:50:45;;;;;;;2.70;1.40;;;;;;;;;;769484;180;919497;-65
2024/02/11 03:53:10;;;;;;;3.73;1.70;;;;;;;;;;769945;180;927079;-65
2024/02/11 03:55:37;;;;;;;3.87;2.17;;;;;;;;;;772254;181;919265;-69
2024/02/11 03:58:01;;;;;;;5.13;3.40;;;;;;;;;;768921;180;918397;-68
2024/02/11 04:00:27;;;;;;;3.92;2.17;;;;;;;;;;766879;180;918794;-69
2024/02/11 04:02:53;;;;;;;3.43;1.83;;;;;;;;;;774906;180;919038;-68
2024/02/11 04:05:20;;;;;;;3.73;1.93;;;;;;;;;;766876;180;923180;-65
2024/02/11 04:07:45;;;;;;;3.90;1.93;;;;;;;;;;768062;180;1024735;-65
2024/02/11 04:10:19;;;;;;;4.27;1.60;;;;;;;;;;766378;180;919279;-66
2024/02/11 04:12:38;;;;;;;3.80;2.47;;;;;;;;;;771581;180;918544;-69
2024/02/11 04:15:09;;;;;;;3.37;2.00;;;;;;;;;;769209;180;909679;-65
2024/02/11 04:17:36;;;;;;;4.95;2.03;;;;;;;;;;771600;180;817734;-65
2024/02/11 04:19:57;;;;;;;3.40;2.10;;;;;;;;;;771239;181;921010;-68
2024/02/11 04:22:22;;;;;;;3.73;1.90;;;;;;;;;;766941;180;924862;-65
2024/02/11 04:24:49;;;;;;;3.67;2.03;;;;;;;;;;770427;180;917112;-68
2024/02/11 04:27:14;;;;;;;2.90;2.10;;;;;;;;;;778714;180;919515;-65
2024/02/11 04:29:44;;;;;;;4.40;2.00;;;;;;;;;;771415;179;817423;-69
2024/02/11 04:32:08;;;;;;;6.93;2.10;;;;;;;;;;769896;180;917645;-64
2024/02/11 04:34:32;;;;;;;3.10;1.90;;;;;;;;;;768997;180;919782;-64
2024/02/11 04:36:59;;;;;;;4.20;1.90;;;;;;;;;;767800;180;879010;-69
2024/02/11 04:39:24;;;;;;;3.63;1.90;;;;;;;;;;763088;181;919118;-64
2024/02/11 04:41:50;;;;;;;4.57;2.13;;;;;;;;;;769002;180;919779;-69
2024/02/11 04:44:15;;;;;;;3.50;2.40;;;;;;;;;;776823;180;819203;-65
2024/02/11 04:46:41;;;;;;;3.90;2.30;;;;;;;;;;769778;179;914406;-64
2024/02/11 04:49:07;;;;;;;3.70;2.20;;;;;;;;;;768193;180;934333;-65
2024/02/11 04:51:33;;;;;;;3.67;2.50;;;;;;;;;;775683;180;1016691;-66
2024/02/11 04:53:59;;;;;;;3.70;2.30;;;;;;;;;;771316;179;917910;-64
2024/02/11 04:56:27;;;;;;;3.30;2.20;;;;;;;;;;767783;180;907363;-68
2024/02/11 04:58:52;;;;;;;3.28;2.05;;;;;;;;;;771684;180;922170;-68
2024/02/11 05:01:18;;;;;;;4.33;2.70;;;;;;;;;;766550;180;911275;-65
2024/02/11 05:03:46;;;;;;;3.87;3.00;;;;;;;;;;768018;180;884682;-65
2024/02/11 05:06:09;;;;;;;4.63;2.90;;;;;;;;;;766761;180;920510;-70
2024/02/11 05:08:35;;;;;;;4.43;2.17;;;;;;;;;;773535;180;916418;-69
2024/02/11 05:11:01;;;;;;;5.97;3.40;;;;;;;;;;770666;180;917812;-68
2024/02/11 05:13:29;;;;;;;3.80;2.23;;;;;;;;;;770551;180;1022458;-62
2024/02/11 05:15:57;;;;;;;3.93;2.30;;;;;;;;;;769359;180;915934;-65
2024/02/11 05:18:19;;;;;;;3.30;2.07;;;;;;;;;;768706;180;914754;-65
2024/02/11 05:20:45;;;;;;;5.50;3.00;;;;;;;;;;767929;180;917400;-65
2024/02/11 05:23:10;;;;;;;3.63;1.90;;;;;;;;;;776521;180;917740;-65
2024/02/11 05:25:36;;;;;;;5.83;2.70;;;;;;;;;;769276;179;917632;-69
2024/02/11 05:28:02;;;;;;;5.57;2.93;;;;;;;;;;770331;180;916877;-68
2024/02/11 05:30:28;;;;;;;4.13;2.40;;;;;;;;;;768475;179;842362;-65
2024/02/11 05:32:54;;;;;;;4.03;2.50;;;;;;;;;;772753;180;934742;-66
2024/02/11 05:35:23;;;;;;;3.83;2.43;;;;;;;;;;768340;180;919003;-66
2024/02/11 05:37:46;;;;;;;6.93;2.60;;;;;;;;;;769276;180;939502;-68
2024/02/11 05:40:12;;;;;;;5.20;2.90;;;;;;;;;;774752;180;916575;-69
2024/02/11 05:42:39;;;;;;;7.00;3.00;;;;;;;;;;771800;180;913866;-68
2024/02/11 05:45:05;;;;;;;4.63;2.63;;;;;;;;;;770525;180;822692;-68
2024/02/11 05:47:32;;;;;;;3.63;2.37;;;;;;;;;;775654;180;815965;-68
2024/02/11 05:49:57;;;;;;;6.63;2.90;;;;;;;;;;770378;180;819031;-65
2024/02/11 05:52:23;;;;;;;3.70;2.57;;;;;;;;;;769710;180;915914;-65
2024/02/11 05:54:48;;;;;;;4.00;2.63;;;;;;;;;;768988;180;919049;-66
2024/02/11 05:57:14;;;;;;;8.20;2.80;;;;;;;;;;753505;184;913748;-67
2024/02/11 05:59:40;;;;;;;4.10;2.90;;;;;;;;;;768880;180;936601;-69
2024/02/11 06:02:06;;;;;;;3.70;2.40;;;;;;;;;;766571;179;816610;-65
2024/02/11 06:04:32;;;;;;;3.60;2.53;;;;;;;;;;770031;180;915332;-68
2024/02/11 06:06:58;;;;;;;7.40;2.83;;;;;;;;;;768539;181;817244;-68
2024/02/11 06:09:24;;;;;;;4.40;2.30;;;;;;;;;;767667;181;918863;-65
2024/02/11 06:11:50;;;;;;;4.33;2.90;;;;;;;;;;775185;180;919100;-68
2024/02/11 06:14:16;;;;;;;5.37;2.93;;;;;;;;;;769241;179;918893;-68
2024/02/11 06:16:42;;;;;;;3.72;2.72;;;;;;;;;;767229;180;918278;-65
2024/02/11 06:19:07;;;;;;;5.30;2.70;;;;;;;;;;772697;180;897242;-65
2024/02/11 06:21:33;;;;;;;3.87;2.93;;;;;;;;;;770068;179;862105;-68
2024/02/11 06:24:01;;;;;;;7.17;2.50;;;;;;;;;;769898;180;919351;-64
2024/02/11 06:26:26;;;;;;;5.23;2.80;;;;;;;;;;768849;180;817621;-68
2024/02/11 06:28:52;;;;;;;5.80;3.40;;;;;;;;;;772798;180;767933;-64
2024/02/11 06:31:17;;;;;;;3.80;2.37;;;;;;;;;;766527;180;918792;-64
2024/02/11 06:33:43;;;;;;;4.60;3.43;;;;;;;;;;765400;181;1023558;-68
2024/02/11 06:36:08;;;;;;;6.40;3.50;;;;;;;;;;773395;180;816859;-65
2024/02/11 06:38:34;;;;;;;5.63;3.13;;;;;;;;;;769554;180;817266;-69
2024/02/11 06:41:00;;;;;;;4.87;2.83;;;;;;;;;;767096;180;918297;-70
2024/02/11 06:43:30;;;;;;;6.53;3.50;;;;;;;;;;774359;180;910187;-68
2024/02/11 06:45:52;;;;;;;8.07;4.70;;;;;;;;;;769839;179;919199;-64
2024/02/11 06:48:18;;;;;;;7.60;3.55;;;;;;;;;;768576;179;893513;-70
2024/02/11 06:50:43;;;;;;;7.33;3.80;;;;;;;;;;774131;180;797572;-66
2024/02/11 06:53:09;;;;;;;9.80;5.67;;;;;;;;;;770914;181;816766;-65
2024/02/11 06:55:35;;;;;;;10.00;3.10;;;;;;;;;;771563;179;925624;-64
2024/02/11 06:58:02;;;;;;;3.70;2.78;;;;;;;;;;768624;181;920156;-65
2024/02/11 07:00:27;;;;;;;6.33;3.60;;;;;;;;;;774453;180;919219;-65
2024/02/11 07:02:54;;;;;;;8.23;3.50;;;;;;;;;;771430;180;940756;-68
2024/02/11 07:05:19;;;;;;;5.93;3.70;;;;;;;;;;771873;180;837556;-69
2024/02/11 07:07:44;;;;;;;5.50;3.60;;;;;;;;;;774570;180;921672;-65
2024/02/11 07:10:10;;;;;;;4.20;2.93;;;;;;;;;;769764;180;853864;-64
2024/02/11 07:12:36;;;;;;;9.83;3.10;;;;;;;;;;766827;180;917114;-68
2024/02/11 07:15:04;;;;;;;4.27;3.10;;;;;;;;;;773244;180;916780;-65
2024/02/11 07:17:30;;;;;;;5.70;3.30;;;;;;;;;;767374;180;920288;-65
2024/02/11 07:19:54;;;;;;;5.13;3.00;;;;;;;;;;770710;180;811142;-68
2024/02/11 07:22:20;;;;;;;6.00;3.10;;;;;;;;;;768697;180;916233;-68
2024/02/11 07:24:47;;;;;;;4.03;2.83;;;;;;;;;;774251;180;840502;-65
2024/02/11 07:27:14;;;;;;;4.90;2.87;;;;;;;;;;769076;180;1013211;-64
2024/02/11 07:29:38;;;;;;;7.30;3.57;;;;;;;;;;769603;180;918871;-69
2024/02/11 07:32:04;;;;;;;6.83;4.27;;;;;;;;;;773203;180;823962;-68
2024/02/11 07:34:29;;;;;;;4.20;3.33;;;;;;;;;;767318;180;966075;-68
2024/02/11 07:36:59;;;;;;;6.53;3.63;;;;;;;;;;771987;179;917565;-65
2024/02/11 07:39:22;;;;;;;5.70;3.30;;;;;;;;;;774213;180;896624;-68
2024/02/11 07:41:48;;;;;;;6.13;3.17;;;;;;;;;;767216;180;918995;-65
2024/02/11 07:44:14;;;;;;;9.07;3.57;;;;;;;;;;770583;180;817535;-65
2024/02/11 07:46:39;;;;;;;5.07;3.07;;;;;;;;;;770517;179;1017756;-65
2024/02/11 07:49:05;;;;;;;6.53;2.80;;;;;;;;;;777066;179;626470;-64
2024/02/11 07:51:31;;;;;;;5.30;2.70;;;;;;;;;;766973;180;820512;-68
2024/02/11 07:53:57;;;;;;;3.60;2.47;;;;;;;;;;771482;180;637735;-65
2024/02/11 07:56:23;;;;;;;5.70;3.00;;;;;;;;;;775623;180;625550;-65
2024/02/11 07:58:48;;;;;;;4.17;2.70;;;;;;;;;;772129;180;714925;-68
2024/02/11 08:01:14;;;;;;;6.33;2.57;;;;;;;;;;770752;179;1021985;-68
2024/02/11 08:03:40;;;;;;;3.92;2.60;;;;;;;;;;775587;180;918541;-68
2024/02/11 08:06:09;;;;;;;3.83;2.57;;;;;;;;;;771605;180;920526;-65
2024/02/11 08:08:32;;;;;;;3.17;2.20;;;;;;;;;;769937;179;921657;-68
2024/02/11 08:10:59;;;;;;;3.80;2.50;;;;;;;;;;770905;180;816571;-65
2024/02/11 08:13:25;;;;;;;4.47;2.43;;;;;;;;;;777413;180;654398;-65
2024/02/11 08:15:51;;;;;;;7.27;3.27;;;;;;;;;;775924;179;629133;-69
2024/02/11 08:18:17;;;;;;;4.10;2.50;;;;;;;;;;770803;179;625468;-65
2024/02/11 08:20:43;;;;;;;3.57;2.40;;;;;;;;;;773715;180;626402;-69
2024/02/11 08:23:08;;;;;;;5.00;2.90;;;;;;;;;;772411;180;626320;-65
2024/02/11 08:25:35;;;;;;;5.83;2.90;;;;;;;;;;776488;179;628185;-65
2024/02/11 08:28:00;;;;;;;5.40;3.23;;;;;;;;;;772907;180;611421;-65
2024/02/11 08:30:26;;;;;;;4.87;2.70;;;;;;;;;;774542;179;621029;-69
2024/02/11 08:32:52;;;;;;;4.60;2.50;;;;;;;;;;770739;180;629066;-69
2024/02/11 08:35:18;;;;;;;4.20;3.07;;;;;;;;;;776912;180;613364;-65
2024/02/11 08:37:44;;;;;;;5.20;3.20;;;;;;;;;;772212;180;623480;-64
2024/02/11 08:40:12;;;;;;;4.70;2.97;;;;;;;;;;773593;180;628885;-68
2024/02/11 08:42:36;;;;;;;5.20;3.17;;;;;;;;;;770032;180;619256;-66
2024/02/11 08:45:02;;;;;;;7.10;3.23;;;;;;;;;;774183;180;813094;-69
2024/02/11 08:47:28;;;;;;;5.83;3.10;;;;;;;;;;772451;180;816656;-68
2024/02/11 08:49:53;;;;;;;4.67;2.60;;;;;;;;;;770422;180;914922;-65
2024/02/11 08:52:19;;;;;;;4.78;3.50;;;;;;;;;;775460;179;1120843;-68
2024/02/11 08:54:46;;;;;;;3.90;2.80;;;;;;;;;;767262;179;813959;-64
2024/02/11 08:57:14;;;;;;;6.10;2.57;;;;;;;;;;770938;180;919239;-64
2024/02/11 08:59:38;;;;;;;4.27;2.57;;;;;;;;;;775328;180;817316;-65
2024/02/11 09:02:03;;;;;;;5.57;3.17;;;;;;;;;;767742;179;923385;-64
2024/02/11 09:04:29;;;;;;;6.03;3.63;;;;;;;;;;766974;180;920485;-70
2024/02/11 09:06:55;;;;;;;4.50;3.27;;;;;;;;;;771706;180;864731;-65
2024/02/11 09:09:29;;;;;;;5.70;2.83;;;;;;;;;;765901;181;915280;-64
2024/02/11 09:11:57;;;;;;;4.93;3.10;;;;;;;;;;766627;180;919053;-69
2024/02/11 09:14:22;;;;;;;4.40;3.10;;;;;;;;;;771660;179;1027820;-68
2024/02/11 09:16:48;;;;;;;3.97;2.67;;;;;;;;;;772441;179;917333;-65
2024/02/11 09:19:13;;;;;;;5.20;3.37;;;;;;;;;;769333;180;883721;-65
2024/02/11 09:21:39;;;;;;;6.62;3.47;;;;;;;;;;771731;180;916880;-69
2024/02/11 09:24:07;;;;;;;4.33;3.00;;;;;;;;;;770071;179;819398;-67
2024/02/11 09:26:31;;;;;;;5.73;2.93;;;;;;;;;;775030;180;918799;-68
2024/02/11 09:28:57;;;;;;;4.90;2.83;;;;;;;;;;770691;179;819297;-68
2024/02/11 09:31:23;;;;;;;5.80;3.40;;;;;;;;;;768198;180;919266;-66
2024/02/11 09:33:49;;;;;;;4.80;3.80;;;;;;;;;;774074;180;919179;-69
2024/02/11 09:36:14;;;;;;;4.40;2.90;;;;;;;;;;771103;180;821053;-64
2024/02/11 09:38:40;;;;;;;5.30;3.33;;;;;;;;;;767690;180;935863;-64
2024/02/11 09:41:07;;;;;;;4.70;3.03;;;;;;;;;;773858;180;915972;-69
2024/02/11 09:43:33;;;;;;;4.60;2.73;;;;;;;;;;769440;180;919556;-66
2024/02/11 09:45:59;;;;;;;4.10;2.80;;;;;;;;;;774231;180;912790;-71
2024/02/11 09:48:25;;;;;;;7.60;2.93;;;;;;;;;;768732;179;843008;-68
2024/02/11 09:50:50;;;;;;;4.90;2.60;;;;;;;;;;768935;181;919404;-64
2024/02/11 09:53:17;;;;;;;4.83;3.20;;;;;;;;;;765574;180;914723;-70
2024/02/11 09:55:42;;;;;;;6.70;4.17;;;;;;;;;;766483;180;934738;-65
2024/02/11 09:58:08;;;;;;;4.77;2.73;;;;;;;;;;772633;180;1017708;-68
2024/02/11 10:00:34;;;;;;;3.87;2.90;;;;;;;;;;767298;180;952030;-64
2024/02/11 10:02:59;;;;;;;4.47;3.40;;;;;;;;;;769021;180;822128;-65
2024/02/11 10:05:26;;;;;;;5.70;3.40;;;;;;;;;;773938;180;928895;-65
2024/02/11 10:07:54;;;;;;;5.97;4.00;;;;;;;;;;769846;179;918613;-64
2024/02/11 10:10:17;;;;;;;8.53;3.87;;;;;;;;;;764887;180;917034;-69
2024/02/11 10:12:43;;;;;;;4.40;3.33;;;;;;;;;;771702;180;861327;-65
2024/02/11 10:15:11;;;;;;;4.93;2.80;;;;;;;;;;768408;180;811449;-69
2024/02/11 10:17:37;;;;;;;6.43;3.27;;;;;;;;;;769495;180;895807;-69
2024/02/11 10:20:03;;;;;;;5.37;3.07;;;;;;;;;;767009;180;922714;-65
2024/02/11 10:22:29;;;;;;;6.40;3.17;;;;;;;;;;772762;180;919664;-68
2024/02/11 10:24:53;;;;;;;5.83;4.13;;;;;;;;;;772021;179;929084;-65
2024/02/11 10:27:19;;;;;;;6.83;3.37;;;;;;;;;;769878;180;921537;-65
2024/02/11 10:29:45;;;;;;;4.27;2.93;;;;;;;;;;775009;180;919839;-64
2024/02/11 10:32:13;;;;;;;7.60;3.33;;;;;;;;;;772225;180;920129;-64
2024/02/11 10:34:37;;;;;;;5.20;3.42;;;;;;;;;;771963;179;916878;-64
2024/02/11 10:37:03;;;;;;;8.17;4.50;;;;;;;;;;770703;180;817103;-64
2024/02/11 10:39:29;;;;;;;13.67;6.57;;;;;;;;;;769916;180;876904;-64
2024/02/11 10:41:55;;;;;;;5.20;3.60;;;;;;;;;;767347;181;959382;-70
2024/02/11 10:44:21;;;;;;;4.10;3.20;;;;;;;;;;768037;180;919440;-65
2024/02/11 10:46:46;;;;;;;7.43;3.60;;;;;;;;;;769886;180;919420;-69
2024/02/11 10:49:12;;;;;;;5.40;3.90;;;;;;;;;;762528;181;919253;-68
2024/02/11 10:51:38;;;;;;;7.30;4.50;;;;;;;;;;768230;181;820549;-68
2024/02/11 10:54:04;;;;;;;6.03;3.47;;;;;;;;;;774592;180;866516;-64
2024/02/11 10:56:30;;;;;;;6.03;3.70;;;;;;;;;;772114;180;919057;-69
2024/02/11 10:58:58;;;;;;;6.50;4.47;;;;;;;;;;760842;182;923818;-63
2024/02/11 11:01:23;;;;;;;8.83;4.47;;;;;;;;;;761410;183;917781;-64
2024/02/11 11:03:49;;;;;;;5.23;3.40;;;;;;;;;;757240;181;918348;-64
2024/02/11 11:06:17;;;;;;;5.17;3.23;;;;;;;;;;758242;183;919392;-65
2024/02/11 11:08:41;;;;;;;6.07;3.23;;;;;;;;;;756500;184;905516;-66
2024/02/11 11:11:07;;;;;;;4.20;2.87;;;;;;;;;;758239;184;830276;-69
2024/02/11 11:13:33;;;;;;;5.17;3.17;;;;;;;;;;759288;183;919403;-65
2024/02/11 11:15:58;;;;;;;6.30;3.10;;;;;;;;;;757198;182;923184;-64
2024/02/11 11:18:24;;;;;;;4.07;2.67;;;;;;;;;;775655;180;919164;-64
2024/02/11 11:20:52;;;;;;;4.50;2.70;;;;;;;;;;767903;180;921446;-64
2024/02/11 11:23:16;;;;;;;5.43;3.15;;;;;;;;;;769460;180;820915;-65
2024/02/11 11:25:42;;;;;;;4.40;3.13;;;;;;;;;;772556;180;919385;-64
2024/02/11 11:28:10;;;;;;;6.37;3.03;;;;;;;;;;767032;180;918690;-65
2024/02/11 11:30:36;;;;;;;4.15;2.90;;;;;;;;;;768058;180;912981;-64
2024/02/11 11:33:03;;;;;;;3.73;2.60;;;;;;;;;;768073;180;916531;-65
2024/02/11 11:35:30;;;;;;;5.07;3.62;;;;;;;;;;770299;179;918881;-67
2024/02/11 11:37:55;;;;;;;5.30;3.07;;;;;;;;;;765220;180;818759;-67
2024/02/11 11:40:22;;;;;;;4.80;3.60;;;;;;;;;;767381;180;919771;-65
2024/02/11 11:42:46;;;;;;;4.10;2.97;;;;;;;;;;775254;180;919861;-67
2024/02/11 11:45:12;;;;;;;8.30;3.30;;;;;;;;;;771366;180;817191;-67
2024/02/11 11:47:38;;;;;;;26.17;10.63;;;;;;;;;;772136;180;855227;-68
2024/02/11 11:50:06;;;;;;;23.13;12.60;;;;;;;;;;774378;180;1024011;-67
2024/02/11 11:52:34;;;;;;;5.73;3.00;;;;;;;;;;770161;180;919618;-67
2024/02/11 11:55:00;;;;;;;6.03;2.80;;;;;;;;;;771746;180;919086;-65
2024/02/11 11:57:26;;;;;;;4.10;3.03;;;;;;;;;;768129;180;919456;-67
2024/02/11 11:59:56;;;;;;;4.20;2.47;;;;;;;;;;774343;180;916385;-66
2024/02/11 12:02:21;;;;;;;4.00;2.97;;;;;;;;;;767247;180;829689;-65
2024/02/11 12:04:48;;;;;;;7.57;2.77;;;;;;;;;;767886;180;919109;-64
2024/02/11 12:07:13;;;;;;;5.57;2.77;;;;;;;;;;771908;180;817738;-65
2024/02/11 12:09:39;;;;;;;4.20;2.67;;;;;;;;;;768270;180;918770;-68
2024/02/11 12:12:05;;;;;;;3.10;2.17;;;;;;;;;;772952;180;651436;-65
2024/02/11 12:14:31;;;;;;;5.27;2.33;;;;;;;;;;771274;180;627433;-68
2024/02/11 12:16:57;;;;;;;4.00;2.60;;;;;;;;;;763375;183;914325;-69
2024/02/11 12:19:23;;;;;;;6.77;2.43;;;;;;;;;;766567;180;642848;-68
2024/02/11 12:21:49;;;;;;;6.43;2.53;;;;;;;;;;771128;179;663717;-66
2024/02/11 12:24:15;;;;;;;3.60;1.87;;;;;;;;;;774994;180;651781;-65
2024/02/11 12:26:41;;;;;;;4.43;2.40;;;;;;;;;;767328;180;918060;-68
2024/02/11 12:29:07;;;;;;;2.40;1.40;;;;;;;;;;770337;180;815197;-68
2024/02/11 12:31:33;;;;;;;2.42;1.50;;;;;;;;;;775123;180;810195;-66
2024/02/11 12:33:58;;;;;;;15.63;5.93;;;;;;;;;;771776;180;916572;-68
2024/02/11 12:36:27;;;;;;;7.00;3.73;;;;;;;;;;774789;180;618791;-65
2024/02/11 12:38:53;;;;;;;11.50;4.60;;;;;;;;;;767601;180;921920;-64
2024/02/11 12:41:19;;;;;;;5.60;3.33;;;;;;;;;;772143;181;823259;-67
2024/02/11 12:43:45;;;;;;;3.20;1.70;;;;;;;;;;760465;181;919387;-65
2024/02/11 12:46:11;;;;;;;3.00;1.70;;;;;;;;;;767295;178;918133;-68
2024/02/11 12:48:40;;;;;;;2.93;1.40;;;;;;;;;;776543;180;810696;-68
2024/02/11 12:51:05;;;;;;;3.20;1.80;;;;;;;;;;771074;180;908372;-65
2024/02/11 12:53:31;;;;;;;3.47;2.00;;;;;;;;;;769780;180;918913;-65
2024/02/11 12:55:57;;;;;;;2.40;1.30;;;;;;;;;;775794;180;816011;-65
2024/02/11 12:58:23;;;;;;;3.30;1.75;;;;;;;;;;771561;180;848609;-67
2024/02/11 13:00:49;;;;;;;2.57;1.33;;;;;;;;;;767750;179;900574;-68
2024/02/11 13:03:15;;;;;;;3.20;1.67;;;;;;;;;;771121;180;818300;-66
2024/02/11 13:05:41;;;;;;;2.93;1.73;;;;;;;;;;775255;179;917064;-68
2024/02/11 13:08:07;;;;;;;2.80;1.30;;;;;;;;;;767936;180;919967;-68
2024/02/11 13:10:32;;;;;;;2.33;1.33;;;;;;;;;;770515;180;620658;-68
2024/02/11 13:12:59;;;;;;;2.20;1.20;;;;;;;;;;776816;180;618911;-67
2024/02/11 13:15:24;;;;;;;2.30;1.30;;;;;;;;;;771311;180;915053;-69
2024/02/11 13:17:50;;;;;;;2.87;1.23;;;;;;;;;;768190;180;918656;-68
2024/02/11 13:20:16;;;;;;;2.53;1.50;;;;;;;;;;774637;180;816323;-64
2024/02/11 13:22:43;;;;;;;4.80;1.40;;;;;;;;;;770106;180;825550;-65
2024/02/11 13:25:10;;;;;;;2.87;1.13;;;;;;;;;;769444;180;821437;-65
2024/02/11 13:27:34;;;;;;;2.90;1.57;;;;;;;;;;769647;177;917969;-65
2024/02/11 13:29:59;;;;;;;2.40;1.40;;;;;;;;;;770494;180;921400;-64
2024/02/11 13:32:25;;;;;;;4.23;1.73;;;;;;;;;;755574;181;908289;-64
2024/02/11 13:34:52;;;;;;;2.53;1.37;;;;;;;;;;767136;180;915148;-67
2024/02/11 13:37:17;;;;;;;2.70;1.53;;;;;;;;;;770644;180;918986;-69
2024/02/11 13:39:43;;;;;;;2.90;1.47;;;;;;;;;;769241;180;840292;-66
2024/02/11 13:42:09;;;;;;;3.40;1.60;;;;;;;;;;768735;180;815910;-69
2024/02/11 13:44:35;;;;;;;4.00;1.77;;;;;;;;;;773918;179;943106;-68
2024/02/11 13:47:00;;;;;;;2.70;1.37;;;;;;;;;;771935;180;938780;-68
2024/02/11 13:49:26;;;;;;;2.80;1.47;;;;;;;;;;770144;179;920083;-68
2024/02/11 13:51:52;;;;;;;2.40;1.50;;;;;;;;;;770800;179;917972;-67
2024/02/11 13:54:18;;;;;;;3.43;1.50;;;;;;;;;;768382;180;919682;-68
2024/02/11 13:56:45;;;;;;;3.47;1.83;;;;;;;;;;769873;180;821735;-68
2024/02/11 13:59:10;;;;;;;3.33;1.90;;;;;;;;;;770779;180;919496;-65
2024/02/11 14:01:35;;;;;;;2.80;1.67;;;;;;;;;;776048;180;856343;-69
2024/02/11 14:04:02;;;;;;;2.60;1.67;;;;;;;;;;770576;180;911425;-65
2024/02/11 14:06:30;;;;;;;2.60;1.23;;;;;;;;;;769638;180;919433;-66
2024/02/11 14:08:56;;;;;;;2.37;1.37;;;;;;;;;;770971;181;818003;-66
2024/02/11 14:11:24;;;;;;;4.40;1.93;;;;;;;;;;770978;180;919517;-68
2024/02/11 14:13:45;;;;;;;5.43;1.47;;;;;;;;;;770540;180;917853;-66
2024/02/11 14:16:10;;;;;;;2.97;1.57;;;;;;;;;;775242;180;917403;-68
2024/02/11 14:18:38;;;;;;;2.80;1.80;;;;;;;;;;776153;178;840792;-67
2024/02/11 14:21:02;;;;;;;3.60;2.50;;;;;;;;;;772509;179;919356;-68